sensor_id;sensor_type;location;lat;lon;timestamp;temperature;humidity
58983;DHT22;44771;49.982;8.560;2022-12-18T00:03:09;-9.90;99.90
58983;DHT22;44771;49.982;8.560;2022-12-18T00:08:10;-9.90;99.90
58983;DHT22;44771;49.982;8.560;2022-12-18T00:13:12;-9.70;99.90
58983;DHT22;44771;49.982;8.560;2022-12-18T00:18:15;-9.60;99.90
58983;DHT22;44771;49.982;8.560;2022-12-18T00:23:21;-9.50;99.90
58983;DHT22;44771;49.982;8.560;2022-12-18T00:28:22;-9.50;99.90
58983;DHT22;44771;49.982;8.560;2022-12-18T00:33:25;-9.40;99.90
58983;DHT22;44771;49.982;8.560;2022-12-18T00:38:27;-9.50;99.90
58983;DHT22;44771;49.982;8.560;2022-12-18T00:43:29;-9.60;99.90
58983;DHT22;44771;49.982;8.560;2022-12-18T00:48:32;-9.60;99.90
58983;DHT22;44771;49.982;8.560;2022-12-18T00:53:34;-9.70;99.90
58983;DHT22;44771;49.982;8.560;2022-12-18T00:58:36;-9.80;99.90
58983;DHT22;44771;49.982;8.560;2022-12-18T01:03:39;-9.80;99.90
58983;DHT22;44771;49.982;8.560;2022-12-18T01:08:42;-9.90;99.90
58983;DHT22;44771;49.982;8.560;2022-12-18T01:13:44;-10.00;99.90
58983;DHT22;44771;49.982;8.560;2022-12-18T01:18:50;-10.00;99.90
58983;DHT22;44771;49.982;8.560;2022-12-18T01:23:54;-9.90;99.90
58983;DHT22;44771;49.982;8.560;2022-12-18T01:28:56;-9.90;99.90
58983;DHT22;44771;49.982;8.560;2022-12-18T01:34:00;-9.90;99.90
58983;DHT22;44771;49.982;8.560;2022-12-18T01:39:05;-9.90;99.90
58983;DHT22;44771;49.982;8.560;2022-12-18T01:49:44;-9.90;99.90
58983;DHT22;44771;49.982;8.560;2022-12-18T01:54:46;-10.00;99.90
58983;DHT22;44771;49.982;8.560;2022-12-18T01:59:51;-10.00;99.90
58983;DHT22;44771;49.982;8.560;2022-12-18T02:04:55;-10.00;99.90
58983;DHT22;44771;49.982;8.560;2022-12-18T02:10:02;-10.00;99.90
58983;DHT22;44771;49.982;8.560;2022-12-18T02:15:09;-9.90;99.90
58983;DHT22;44771;49.982;8.560;2022-12-18T02:20:19;-9.90;99.90
58983;DHT22;44771;49.982;8.560;2022-12-18T02:25:32;-10.10;99.90
58983;DHT22;44771;49.982;8.560;2022-12-18T02:30:42;-10.10;99.90
58983;DHT22;44771;49.982;8.560;2022-12-18T02:35:45;-10.20;99.90
58983;DHT22;44771;49.982;8.560;2022-12-18T02:40:49;-10.20;99.90
58983;DHT22;44771;49.982;8.560;2022-12-18T02:45:56;-10.30;99.90
58983;DHT22;44771;49.982;8.560;2022-12-18T02:51:02;-10.30;99.90
58983;DHT22;44771;49.982;8.560;2022-12-18T02:56:09;-10.30;99.90
58983;DHT22;44771;49.982;8.560;2022-12-18T03:01:16;-10.30;99.90
58983;DHT22;44771;49.982;8.560;2022-12-18T03:06:25;-10.30;99.90
58983;DHT22;44771;49.982;8.560;2022-12-18T03:11:32;-10.30;99.90
58983;DHT22;44771;49.982;8.560;2022-12-18T03:16:36;-10.30;99.90
58983;DHT22;44771;49.982;8.560;2022-12-18T03:21:42;-10.20;99.90
58983;DHT22;44771;49.982;8.560;2022-12-18T03:26:47;-10.20;99.90
58983;DHT22;44771;49.982;8.560;2022-12-18T03:31:55;-10.20;99.90
58983;DHT22;44771;49.982;8.560;2022-12-18T03:36:58;-10.20;99.90
58983;DHT22;44771;49.982;8.560;2022-12-18T03:42:05;-10.10;99.90
58983;DHT22;44771;49.982;8.560;2022-12-18T03:47:15;-10.10;99.90
58983;DHT22;44771;49.982;8.560;2022-12-18T03:52:22;-10.00;99.90
58983;DHT22;44771;49.982;8.560;2022-12-18T03:57:29;-9.90;99.90
58983;DHT22;44771;49.982;8.560;2022-12-18T04:02:34;-10.00;99.90
58983;DHT22;44771;49.982;8.560;2022-12-18T04:07:37;-10.00;99.90
58983;DHT22;44771;49.982;8.560;2022-12-18T04:12:39;-10.00;99.90
58983;DHT22;44771;49.982;8.560;2022-12-18T04:17:47;-10.00;99.90
58983;DHT22;44771;49.982;8.560;2022-12-18T04:22:49;-10.00;99.90
58983;DHT22;44771;49.982;8.560;2022-12-18T04:27:50;-10.00;99.90
58983;DHT22;44771;49.982;8.560;2022-12-18T04:32:53;-10.00;99.90
58983;DHT22;44771;49.982;8.560;2022-12-18T04:37:55;-10.00;99.90
58983;DHT22;44771;49.982;8.560;2022-12-18T04:42:57;-10.00;99.90
58983;DHT22;44771;49.982;8.560;2022-12-18T04:48:01;-10.10;99.90
58983;DHT22;44771;49.982;8.560;2022-12-18T04:53:03;-10.00;99.90
58983;DHT22;44771;49.982;8.560;2022-12-18T04:58:05;-9.90;99.90
58983;DHT22;44771;49.982;8.560;2022-12-18T05:03:08;-9.80;99.90
58983;DHT22;44771;49.982;8.560;2022-12-18T05:08:09;-9.70;99.90
58983;DHT22;44771;49.982;8.560;2022-12-18T05:13:11;-9.70;99.90
58983;DHT22;44771;49.982;8.560;2022-12-18T05:18:14;-9.70;99.90
58983;DHT22;44771;49.982;8.560;2022-12-18T05:23:16;-9.70;99.90
58983;DHT22;44771;49.982;8.560;2022-12-18T05:28:18;-9.50;99.90
58983;DHT22;44771;49.982;8.560;2022-12-18T05:33:22;-9.40;99.90
58983;DHT22;44771;49.982;8.560;2022-12-18T05:38:25;-9.50;99.90
58983;DHT22;44771;49.982;8.560;2022-12-18T05:43:27;-9.40;99.90
58983;DHT22;44771;49.982;8.560;2022-12-18T05:48:30;-9.30;99.90
58983;DHT22;44771;49.982;8.560;2022-12-18T05:53:32;-9.30;99.90
58983;DHT22;44771;49.982;8.560;2022-12-18T05:58:34;-9.30;99.90
58983;DHT22;44771;49.982;8.560;2022-12-18T06:03:37;-9.20;99.90
58983;DHT22;44771;49.982;8.560;2022-12-18T06:08:39;-9.10;99.90
58983;DHT22;44771;49.982;8.560;2022-12-18T06:13:49;-9.10;99.90
58983;DHT22;44771;49.982;8.560;2022-12-18T06:18:58;-9.10;99.90
58983;DHT22;44771;49.982;8.560;2022-12-18T06:24:00;-9.00;99.90
58983;DHT22;44771;49.982;8.560;2022-12-18T06:29:02;-8.90;99.90
58983;DHT22;44771;49.982;8.560;2022-12-18T06:34:05;-8.90;99.90
58983;DHT22;44771;49.982;8.560;2022-12-18T06:39:07;-8.90;99.90
58983;DHT22;44771;49.982;8.560;2022-12-18T06:44:09;-9.00;99.90
58983;DHT22;44771;49.982;8.560;2022-12-18T06:49:13;-8.90;99.90
58983;DHT22;44771;49.982;8.560;2022-12-18T06:54:15;-8.90;99.90
58983;DHT22;44771;49.982;8.560;2022-12-18T06:59:17;-9.00;99.90
58983;DHT22;44771;49.982;8.560;2022-12-18T07:04:20;-9.00;99.90
58983;DHT22;44771;49.982;8.560;2022-12-18T07:09:22;-9.00;99.90
58983;DHT22;44771;49.982;8.560;2022-12-18T07:14:23;-9.10;99.90
58983;DHT22;44771;49.982;8.560;2022-12-18T07:19:26;-9.10;99.90
58983;DHT22;44771;49.982;8.560;2022-12-18T07:24:29;-9.10;99.90
58983;DHT22;44771;49.982;8.560;2022-12-18T07:29:31;-9.10;99.90
58983;DHT22;44771;49.982;8.560;2022-12-18T07:34:34;-9.00;99.90
58983;DHT22;44771;49.982;8.560;2022-12-18T07:39:36;-9.00;99.90
58983;DHT22;44771;49.982;8.560;2022-12-18T07:44:37;-8.90;99.90
58983;DHT22;44771;49.982;8.560;2022-12-18T07:49:40;-8.90;99.90
58983;DHT22;44771;49.982;8.560;2022-12-18T07:54:42;-9.10;99.90
58983;DHT22;44771;49.982;8.560;2022-12-18T07:59:44;-9.30;99.90
58983;DHT22;44771;49.982;8.560;2022-12-18T08:04:47;-9.30;99.90
58983;DHT22;44771;49.982;8.560;2022-12-18T08:09:49;-9.50;99.90
58983;DHT22;44771;49.982;8.560;2022-12-18T08:14:50;-9.50;99.90
58983;DHT22;44771;49.982;8.560;2022-12-18T08:19:54;-9.50;99.90
58983;DHT22;44771;49.982;8.560;2022-12-18T08:24:55;-9.50;99.90
58983;DHT22;44771;49.982;8.560;2022-12-18T08:29:57;-9.40;99.90
58983;DHT22;44771;49.982;8.560;2022-12-18T08:35:00;-9.30;99.90
58983;DHT22;44771;49.982;8.560;2022-12-18T08:40:02;-9.20;99.90
58983;DHT22;44771;49.982;8.560;2022-12-18T08:45:05;-9.00;99.90
58983;DHT22;44771;49.982;8.560;2022-12-18T08:50:09;-8.90;99.90
58983;DHT22;44771;49.982;8.560;2022-12-18T08:55:11;-8.80;99.90
58983;DHT22;44771;49.982;8.560;2022-12-18T09:00:13;-8.80;99.90
58983;DHT22;44771;49.982;8.560;2022-12-18T09:05:17;-8.70;99.90
58983;DHT22;44771;49.982;8.560;2022-12-18T09:10:18;-8.60;99.90
58983;DHT22;44771;49.982;8.560;2022-12-18T09:15:21;-8.50;99.90
58983;DHT22;44771;49.982;8.560;2022-12-18T09:20:24;-8.50;99.90
58983;DHT22;44771;49.982;8.560;2022-12-18T09:25:26;-8.50;99.90
58983;DHT22;44771;49.982;8.560;2022-12-18T09:30:27;-8.50;99.90
58983;DHT22;44771;49.982;8.560;2022-12-18T09:35:30;-8.40;99.90
58983;DHT22;44771;49.982;8.560;2022-12-18T09:40:35;-8.30;99.90
58983;DHT22;44771;49.982;8.560;2022-12-18T09:45:41;-8.30;99.90
58983;DHT22;44771;49.982;8.560;2022-12-18T09:50:46;-8.00;99.90
58983;DHT22;44771;49.982;8.560;2022-12-18T09:55:51;-7.70;99.90
58983;DHT22;44771;49.982;8.560;2022-12-18T10:00:53;-7.40;99.90
58983;DHT22;44771;49.982;8.560;2022-12-18T10:06:04;-7.00;99.90
58983;DHT22;44771;49.982;8.560;2022-12-18T10:11:34;-6.50;99.90
58983;DHT22;44771;49.982;8.560;2022-12-18T10:16:47;-6.30;99.90
58983;DHT22;44771;49.982;8.560;2022-12-18T10:21:59;-5.80;99.90
58983;DHT22;44771;49.982;8.560;2022-12-18T10:27:12;-5.50;99.90
58983;DHT22;44771;49.982;8.560;2022-12-18T10:32:16;-5.30;99.90
58983;DHT22;44771;49.982;8.560;2022-12-18T10:37:22;-5.20;99.90
58983;DHT22;44771;49.982;8.560;2022-12-18T10:42:24;-5.10;99.90
58983;DHT22;44771;49.982;8.560;2022-12-18T10:47:25;-5.10;99.90
58983;DHT22;44771;49.982;8.560;2022-12-18T10:52:28;-5.20;99.90
58983;DHT22;44771;49.982;8.560;2022-12-18T10:57:33;-5.10;99.90
58983;DHT22;44771;49.982;8.560;2022-12-18T11:02:37;-5.10;99.90
58983;DHT22;44771;49.982;8.560;2022-12-18T11:07:48;-5.20;99.90
58983;DHT22;44771;49.982;8.560;2022-12-18T11:12:50;-5.10;99.90
58983;DHT22;44771;49.982;8.560;2022-12-18T11:17:52;-5.10;99.90
58983;DHT22;44771;49.982;8.560;2022-12-18T11:22:57;-4.80;99.90
58983;DHT22;44771;49.982;8.560;2022-12-18T11:28:02;-4.70;99.90
58983;DHT22;44771;49.982;8.560;2022-12-18T11:33:06;-4.60;99.90
58983;DHT22;44771;49.982;8.560;2022-12-18T11:38:17;-4.60;99.90
58983;DHT22;44771;49.982;8.560;2022-12-18T11:43:24;-4.40;99.90
58983;DHT22;44771;49.982;8.560;2022-12-18T11:48:32;-4.20;99.90
58983;DHT22;44771;49.982;8.560;2022-12-18T11:53:35;-4.00;99.90
58983;DHT22;44771;49.982;8.560;2022-12-18T11:58:46;-3.90;99.90
58983;DHT22;44771;49.982;8.560;2022-12-18T12:09:37;-4.10;99.90
58983;DHT22;44771;49.982;8.560;2022-12-18T12:14:48;-4.00;99.90
58983;DHT22;44771;49.982;8.560;2022-12-18T12:19:59;-3.80;99.90
58983;DHT22;44771;49.982;8.560;2022-12-18T12:25:20;-3.50;99.90
58983;DHT22;44771;49.982;8.560;2022-12-18T12:30:30;-4.00;99.90
58983;DHT22;44771;49.982;8.560;2022-12-18T12:35:44;-4.10;99.90
58983;DHT22;44771;49.982;8.560;2022-12-18T12:40:51;-4.20;99.90
58983;DHT22;44771;49.982;8.560;2022-12-18T12:46:05;-4.10;99.90
58983;DHT22;44771;49.982;8.560;2022-12-18T12:51:13;-4.00;99.90
58983;DHT22;44771;49.982;8.560;2022-12-18T12:56:19;-4.00;99.90
58983;DHT22;44771;49.982;8.560;2022-12-18T13:01:28;-4.00;99.90
58983;DHT22;44771;49.982;8.560;2022-12-18T13:06:39;-4.00;99.90
58983;DHT22;44771;49.982;8.560;2022-12-18T13:11:47;-4.00;99.90
58983;DHT22;44771;49.982;8.560;2022-12-18T13:16:49;-4.10;99.90
58983;DHT22;44771;49.982;8.560;2022-12-18T13:21:55;-4.00;99.90
58983;DHT22;44771;49.982;8.560;2022-12-18T13:26:58;-3.90;99.90
58983;DHT22;44771;49.982;8.560;2022-12-18T13:32:00;-4.00;99.90
58983;DHT22;44771;49.982;8.560;2022-12-18T13:37:41;-4.10;99.90
58983;DHT22;44771;49.982;8.560;2022-12-18T13:42:45;-4.00;99.90
58983;DHT22;44771;49.982;8.560;2022-12-18T13:47:47;-4.10;99.90
58983;DHT22;44771;49.982;8.560;2022-12-18T13:52:50;-4.00;99.90
58983;DHT22;44771;49.982;8.560;2022-12-18T13:58:04;-4.00;99.90
58983;DHT22;44771;49.982;8.560;2022-12-18T14:03:17;-4.10;99.90
58983;DHT22;44771;49.982;8.560;2022-12-18T14:08:24;-4.10;99.90
58983;DHT22;44771;49.982;8.560;2022-12-18T14:13:32;-4.00;99.90
58983;DHT22;44771;49.982;8.560;2022-12-18T14:18:41;-4.00;99.90
58983;DHT22;44771;49.982;8.560;2022-12-18T14:23:44;-4.10;99.90
58983;DHT22;44771;49.982;8.560;2022-12-18T14:28:48;-4.20;99.90
58983;DHT22;44771;49.982;8.560;2022-12-18T14:33:49;-4.10;99.90
58983;DHT22;44771;49.982;8.560;2022-12-18T14:38:52;-4.00;99.90
58983;DHT22;44771;49.982;8.560;2022-12-18T14:44:05;-4.10;99.90
58983;DHT22;44771;49.982;8.560;2022-12-18T14:49:19;-4.20;99.90
58983;DHT22;44771;49.982;8.560;2022-12-18T14:54:23;-4.30;99.90
58983;DHT22;44771;49.982;8.560;2022-12-18T14:59:27;-4.40;99.90
58983;DHT22;44771;49.982;8.560;2022-12-18T15:04:32;-4.50;99.90
58983;DHT22;44771;49.982;8.560;2022-12-18T15:09:34;-4.40;99.90
58983;DHT22;44771;49.982;8.560;2022-12-18T15:14:40;-4.50;99.90
58983;DHT22;44771;49.982;8.560;2022-12-18T15:19:44;-4.90;99.90
58983;DHT22;44771;49.982;8.560;2022-12-18T15:24:46;-5.00;99.90
58983;DHT22;44771;49.982;8.560;2022-12-18T15:30:02;-5.20;99.90
58983;DHT22;44771;49.982;8.560;2022-12-18T15:35:11;-5.20;99.90
58983;DHT22;44771;49.982;8.560;2022-12-18T15:40:15;-5.30;99.90
58983;DHT22;44771;49.982;8.560;2022-12-18T15:45:19;-5.40;99.90
58983;DHT22;44771;49.982;8.560;2022-12-18T15:50:23;-5.40;99.90
58983;DHT22;44771;49.982;8.560;2022-12-18T15:55:24;-5.40;99.90
58983;DHT22;44771;49.982;8.560;2022-12-18T16:00:28;-5.50;99.90
58983;DHT22;44771;49.982;8.560;2022-12-18T16:05:30;-5.60;99.90
58983;DHT22;44771;49.982;8.560;2022-12-18T16:10:32;-5.70;99.90
58983;DHT22;44771;49.982;8.560;2022-12-18T16:15:35;-5.70;99.90
58983;DHT22;44771;49.982;8.560;2022-12-18T16:20:38;-5.70;99.90
58983;DHT22;44771;49.982;8.560;2022-12-18T16:25:40;-5.70;99.90
58983;DHT22;44771;49.982;8.560;2022-12-18T16:30:43;-5.60;99.90
58983;DHT22;44771;49.982;8.560;2022-12-18T16:35:51;-5.60;99.90
58983;DHT22;44771;49.982;8.560;2022-12-18T16:40:53;-5.50;99.90
58983;DHT22;44771;49.982;8.560;2022-12-18T16:45:58;-5.60;99.90
58983;DHT22;44771;49.982;8.560;2022-12-18T16:51:02;-5.70;99.90
58983;DHT22;44771;49.982;8.560;2022-12-18T16:56:04;-5.70;99.90
58983;DHT22;44771;49.982;8.560;2022-12-18T17:01:09;-5.70;99.90
58983;DHT22;44771;49.982;8.560;2022-12-18T17:06:11;-5.80;99.90
58983;DHT22;44771;49.982;8.560;2022-12-18T17:11:12;-5.80;99.90
58983;DHT22;44771;49.982;8.560;2022-12-18T17:16:15;-5.80;99.90
58983;DHT22;44771;49.982;8.560;2022-12-18T17:21:17;-5.80;99.90
58983;DHT22;44771;49.982;8.560;2022-12-18T17:26:19;-5.80;99.90
58983;DHT22;44771;49.982;8.560;2022-12-18T17:31:24;-5.60;99.90
58983;DHT22;44771;49.982;8.560;2022-12-18T17:36:26;-5.70;99.90
58983;DHT22;44771;49.982;8.560;2022-12-18T17:41:29;-5.80;99.90
58983;DHT22;44771;49.982;8.560;2022-12-18T17:46:33;-5.70;99.90
58983;DHT22;44771;49.982;8.560;2022-12-18T17:51:34;-5.70;99.90
58983;DHT22;44771;49.982;8.560;2022-12-18T17:56:37;-5.40;99.90
58983;DHT22;44771;49.982;8.560;2022-12-18T18:01:40;-5.10;99.90
58983;DHT22;44771;49.982;8.560;2022-12-18T18:06:48;-5.20;99.90
58983;DHT22;44771;49.982;8.560;2022-12-18T18:11:50;-5.30;99.90
58983;DHT22;44771;49.982;8.560;2022-12-18T18:16:54;-5.30;99.90
58983;DHT22;44771;49.982;8.560;2022-12-18T18:21:57;-5.30;99.90
58983;DHT22;44771;49.982;8.560;2022-12-18T18:26:59;-5.30;99.90
58983;DHT22;44771;49.982;8.560;2022-12-18T18:32:03;-5.30;99.90
58983;DHT22;44771;49.982;8.560;2022-12-18T18:37:05;-5.30;99.90
58983;DHT22;44771;49.982;8.560;2022-12-18T18:42:07;-5.30;99.90
58983;DHT22;44771;49.982;8.560;2022-12-18T18:47:10;-5.30;99.90
58983;DHT22;44771;49.982;8.560;2022-12-18T18:52:11;-5.20;99.90
58983;DHT22;44771;49.982;8.560;2022-12-18T18:57:13;-5.20;99.90
58983;DHT22;44771;49.982;8.560;2022-12-18T19:02:32;-5.20;99.90
58983;DHT22;44771;49.982;8.560;2022-12-18T19:07:34;-5.20;99.90
58983;DHT22;44771;49.982;8.560;2022-12-18T19:12:36;-5.20;99.90
58983;DHT22;44771;49.982;8.560;2022-12-18T19:17:41;-5.20;99.90
58983;DHT22;44771;49.982;8.560;2022-12-18T19:22:47;-5.10;99.90
58983;DHT22;44771;49.982;8.560;2022-12-18T19:27:56;-5.20;99.90
58983;DHT22;44771;49.982;8.560;2022-12-18T19:32:59;-5.00;99.90
58983;DHT22;44771;49.982;8.560;2022-12-18T19:38:21;-5.00;99.90
58983;DHT22;44771;49.982;8.560;2022-12-18T19:43:23;-5.00;99.90
58983;DHT22;44771;49.982;8.560;2022-12-18T19:48:26;-4.90;99.90
58983;DHT22;44771;49.982;8.560;2022-12-18T19:53:27;-4.90;99.90
58983;DHT22;44771;49.982;8.560;2022-12-18T19:58:29;-4.80;99.90
58983;DHT22;44771;49.982;8.560;2022-12-18T20:03:32;-4.80;99.90
58983;DHT22;44771;49.982;8.560;2022-12-18T20:08:34;-4.80;99.90
58983;DHT22;44771;49.982;8.560;2022-12-18T20:13:36;-4.70;99.90
58983;DHT22;44771;49.982;8.560;2022-12-18T20:18:40;-4.70;99.90
58983;DHT22;44771;49.982;8.560;2022-12-18T20:23:41;-4.70;99.90
58983;DHT22;44771;49.982;8.560;2022-12-18T20:28:44;-4.80;99.90
58983;DHT22;44771;49.982;8.560;2022-12-18T20:33:47;-4.70;99.90
58983;DHT22;44771;49.982;8.560;2022-12-18T20:38:52;-4.70;99.90
58983;DHT22;44771;49.982;8.560;2022-12-18T20:43:58;-4.80;99.90
58983;DHT22;44771;49.982;8.560;2022-12-18T20:49:01;-4.90;99.90
58983;DHT22;44771;49.982;8.560;2022-12-18T20:54:03;-4.80;99.90
58983;DHT22;44771;49.982;8.560;2022-12-18T20:59:10;-4.80;99.90
58983;DHT22;44771;49.982;8.560;2022-12-18T21:04:14;-4.50;99.90
58983;DHT22;44771;49.982;8.560;2022-12-18T21:09:18;-4.50;99.90
58983;DHT22;44771;49.982;8.560;2022-12-18T21:14:22;-4.50;99.90
58983;DHT22;44771;49.982;8.560;2022-12-18T21:19:26;-4.40;99.90
58983;DHT22;44771;49.982;8.560;2022-12-18T21:24:28;-4.30;99.90
58983;DHT22;44771;49.982;8.560;2022-12-18T21:29:33;-4.20;99.90
58983;DHT22;44771;49.982;8.560;2022-12-18T21:34:36;-4.20;99.90
58983;DHT22;44771;49.982;8.560;2022-12-18T21:39:38;-4.30;99.90
58983;DHT22;44771;49.982;8.560;2022-12-18T21:44:40;-4.30;99.90
58983;DHT22;44771;49.982;8.560;2022-12-18T21:49:44;-4.30;99.90
58983;DHT22;44771;49.982;8.560;2022-12-18T21:54:49;-4.30;99.90
58983;DHT22;44771;49.982;8.560;2022-12-18T21:59:50;-4.20;99.90
58983;DHT22;44771;49.982;8.560;2022-12-18T22:04:54;-4.30;99.90
58983;DHT22;44771;49.982;8.560;2022-12-18T22:09:56;-4.30;99.90
58983;DHT22;44771;49.982;8.560;2022-12-18T22:15:00;-4.30;99.90
58983;DHT22;44771;49.982;8.560;2022-12-18T22:20:04;-4.30;99.90
58983;DHT22;44771;49.982;8.560;2022-12-18T22:25:07;-4.30;99.90
58983;DHT22;44771;49.982;8.560;2022-12-18T22:30:10;-4.30;99.90
58983;DHT22;44771;49.982;8.560;2022-12-18T22:35:13;-4.30;99.90
58983;DHT22;44771;49.982;8.560;2022-12-18T22:40:17;-4.30;99.90
58983;DHT22;44771;49.982;8.560;2022-12-18T22:45:25;-4.30;99.90
58983;DHT22;44771;49.982;8.560;2022-12-18T22:50:29;-4.20;99.90
58983;DHT22;44771;49.982;8.560;2022-12-18T22:55:30;-4.20;99.90
58983;DHT22;44771;49.982;8.560;2022-12-18T23:00:32;-4.00;99.90
58983;DHT22;44771;49.982;8.560;2022-12-18T23:05:35;-3.80;99.90
58983;DHT22;44771;49.982;8.560;2022-12-18T23:10:37;-3.60;99.90
58983;DHT22;44771;49.982;8.560;2022-12-18T23:15:40;-3.60;99.90
58983;DHT22;44771;49.982;8.560;2022-12-18T23:20:43;-3.50;99.90
58983;DHT22;44771;49.982;8.560;2022-12-18T23:25:46;-3.60;99.90
58983;DHT22;44771;49.982;8.560;2022-12-18T23:30:48;-3.60;99.90
58983;DHT22;44771;49.982;8.560;2022-12-18T23:35:57;-3.70;99.90
58983;DHT22;44771;49.982;8.560;2022-12-18T23:40:59;-3.60;99.90
58983;DHT22;44771;49.982;8.560;2022-12-18T23:46:00;-3.40;99.90
58983;DHT22;44771;49.982;8.560;2022-12-18T23:51:06;-3.10;99.90
58983;DHT22;44771;49.982;8.560;2022-12-18T23:56:08;-3.20;99.90
